sensor_id;sensor_type;location;lat;lon;timestamp;P1;durP1;ratioP1;P2;durP2;ratioP2
4786;SDS011;62338;48.832;9.422;2023-03-04T00:01:37;51.40;;;28.00;;
4786;SDS011;62338;48.832;9.422;2023-03-04T00:03:39;52.07;;;28.30;;
4786;SDS011;62338;48.832;9.422;2023-03-04T00:05:40;47.80;;;26.60;;
4786;SDS011;62338;48.832;9.422;2023-03-04T00:07:42;48.23;;;28.13;;
4786;SDS011;62338;48.832;9.422;2023-03-04T00:09:44;45.73;;;25.30;;
4786;SDS011;62338;48.832;9.422;2023-03-04T00:11:46;52.33;;;28.60;;
4786;SDS011;62338;48.832;9.422;2023-03-04T00:13:48;53.60;;;27.70;;
4786;SDS011;62338;48.832;9.422;2023-03-04T00:15:50;50.20;;;27.10;;
4786;SDS011;62338;48.832;9.422;2023-03-04T00:17:52;48.77;;;26.53;;
4786;SDS011;62338;48.832;9.422;2023-03-04T00:19:54;50.30;;;25.97;;
4786;SDS011;62338;48.832;9.422;2023-03-04T00:21:56;47.57;;;26.70;;
4786;SDS011;62338;48.832;9.422;2023-03-04T00:24:00;48.53;;;26.20;;
4786;SDS011;62338;48.832;9.422;2023-03-04T00:26:02;47.20;;;25.80;;
4786;SDS011;62338;48.832;9.422;2023-03-04T00:28:04;49.50;;;27.17;;
4786;SDS011;62338;48.832;9.422;2023-03-04T00:30:06;46.40;;;24.17;;
4786;SDS011;62338;48.832;9.422;2023-03-04T00:32:08;50.37;;;25.87;;
4786;SDS011;62338;48.832;9.422;2023-03-04T00:34:10;45.60;;;24.50;;
4786;SDS011;62338;48.832;9.422;2023-03-04T00:36:12;53.00;;;28.87;;
4786;SDS011;62338;48.832;9.422;2023-03-04T00:38:14;47.33;;;27.43;;
4786;SDS011;62338;48.832;9.422;2023-03-04T00:40:16;49.57;;;25.93;;
4786;SDS011;62338;48.832;9.422;2023-03-04T00:42:18;54.23;;;27.13;;
4786;SDS011;62338;48.832;9.422;2023-03-04T00:44:19;47.93;;;26.70;;
4786;SDS011;62338;48.832;9.422;2023-03-04T00:46:21;55.53;;;28.10;;
4786;SDS011;62338;48.832;9.422;2023-03-04T00:48:23;46.73;;;26.60;;
4786;SDS011;62338;48.832;9.422;2023-03-04T00:50:25;48.83;;;26.73;;
4786;SDS011;62338;48.832;9.422;2023-03-04T00:52:27;49.43;;;27.50;;
4786;SDS011;62338;48.832;9.422;2023-03-04T00:54:29;54.90;;;27.97;;
4786;SDS011;62338;48.832;9.422;2023-03-04T00:56:30;53.47;;;28.60;;
4786;SDS011;62338;48.832;9.422;2023-03-04T00:58:32;54.37;;;28.30;;
4786;SDS011;62338;48.832;9.422;2023-03-04T01:00:34;47.07;;;27.23;;
4786;SDS011;62338;48.832;9.422;2023-03-04T01:02:36;52.10;;;28.67;;
4786;SDS011;62338;48.832;9.422;2023-03-04T01:04:38;53.67;;;28.03;;
4786;SDS011;62338;48.832;9.422;2023-03-04T01:06:40;54.37;;;28.53;;
4786;SDS011;62338;48.832;9.422;2023-03-04T01:08:42;55.93;;;28.40;;
4786;SDS011;62338;48.832;9.422;2023-03-04T01:10:44;46.30;;;27.20;;
4786;SDS011;62338;48.832;9.422;2023-03-04T01:12:46;50.70;;;29.50;;
4786;SDS011;62338;48.832;9.422;2023-03-04T01:14:48;60.87;;;29.93;;
4786;SDS011;62338;48.832;9.422;2023-03-04T01:16:50;55.20;;;28.27;;
4786;SDS011;62338;48.832;9.422;2023-03-04T01:18:52;58.47;;;30.60;;
4786;SDS011;62338;48.832;9.422;2023-03-04T01:20:54;56.23;;;29.00;;
4786;SDS011;62338;48.832;9.422;2023-03-04T01:22:56;61.23;;;30.40;;
4786;SDS011;62338;48.832;9.422;2023-03-04T01:24:58;61.70;;;30.93;;
4786;SDS011;62338;48.832;9.422;2023-03-04T01:27:00;53.47;;;28.50;;
4786;SDS011;62338;48.832;9.422;2023-03-04T01:29:02;60.77;;;29.33;;
4786;SDS011;62338;48.832;9.422;2023-03-04T01:31:04;55.50;;;28.93;;
4786;SDS011;62338;48.832;9.422;2023-03-04T01:33:06;61.33;;;31.77;;
4786;SDS011;62338;48.832;9.422;2023-03-04T01:35:08;52.83;;;30.43;;
4786;SDS011;62338;48.832;9.422;2023-03-04T01:37:10;60.20;;;29.93;;
4786;SDS011;62338;48.832;9.422;2023-03-04T01:39:13;59.87;;;30.47;;
4786;SDS011;62338;48.832;9.422;2023-03-04T01:41:16;50.57;;;28.27;;
4786;SDS011;62338;48.832;9.422;2023-03-04T01:43:23;48.70;;;27.17;;
4786;SDS011;62338;48.832;9.422;2023-03-04T01:45:27;53.40;;;29.50;;
4786;SDS011;62338;48.832;9.422;2023-03-04T01:47:30;51.03;;;28.33;;
4786;SDS011;62338;48.832;9.422;2023-03-04T01:49:33;51.27;;;28.50;;
4786;SDS011;62338;48.832;9.422;2023-03-04T01:51:35;53.27;;;28.90;;
4786;SDS011;62338;48.832;9.422;2023-03-04T01:53:36;51.67;;;26.77;;
4786;SDS011;62338;48.832;9.422;2023-03-04T01:55:38;51.07;;;27.60;;
4786;SDS011;62338;48.832;9.422;2023-03-04T01:57:41;50.50;;;28.90;;
4786;SDS011;62338;48.832;9.422;2023-03-04T01:59:43;53.00;;;28.07;;
4786;SDS011;62338;48.832;9.422;2023-03-04T02:01:46;50.40;;;28.47;;
4786;SDS011;62338;48.832;9.422;2023-03-04T02:03:50;52.13;;;27.30;;
4786;SDS011;62338;48.832;9.422;2023-03-04T02:05:52;55.47;;;26.77;;
4786;SDS011;62338;48.832;9.422;2023-03-04T02:07:56;53.37;;;27.67;;
4786;SDS011;62338;48.832;9.422;2023-03-04T02:09:58;54.40;;;27.57;;
4786;SDS011;62338;48.832;9.422;2023-03-04T02:12:00;65.37;;;28.50;;
4786;SDS011;62338;48.832;9.422;2023-03-04T02:14:03;51.77;;;27.10;;
4786;SDS011;62338;48.832;9.422;2023-03-04T02:16:06;54.03;;;28.17;;
4786;SDS011;62338;48.832;9.422;2023-03-04T02:18:18;49.20;;;28.00;;
4786;SDS011;62338;48.832;9.422;2023-03-04T02:22:26;56.83;;;28.07;;
4786;SDS011;62338;48.832;9.422;2023-03-04T02:24:34;60.60;;;28.97;;
4786;SDS011;62338;48.832;9.422;2023-03-04T02:26:43;58.30;;;29.37;;
4786;SDS011;62338;48.832;9.422;2023-03-04T02:28:47;60.37;;;28.70;;
4786;SDS011;62338;48.832;9.422;2023-03-04T02:30:50;57.97;;;28.80;;
4786;SDS011;62338;48.832;9.422;2023-03-04T02:32:53;61.50;;;29.33;;
4786;SDS011;62338;48.832;9.422;2023-03-04T02:34:55;52.77;;;28.60;;
4786;SDS011;62338;48.832;9.422;2023-03-04T02:36:57;56.93;;;27.70;;
4786;SDS011;62338;48.832;9.422;2023-03-04T02:39:00;60.43;;;29.67;;
4786;SDS011;62338;48.832;9.422;2023-03-04T02:41:12;57.07;;;28.20;;
4786;SDS011;62338;48.832;9.422;2023-03-04T02:43:17;54.83;;;28.50;;
4786;SDS011;62338;48.832;9.422;2023-03-04T02:45:36;59.57;;;29.13;;
4786;SDS011;62338;48.832;9.422;2023-03-04T02:47:48;56.63;;;27.70;;
4786;SDS011;62338;48.832;9.422;2023-03-04T02:49:50;54.63;;;27.57;;
4786;SDS011;62338;48.832;9.422;2023-03-04T02:51:53;58.63;;;29.00;;
4786;SDS011;62338;48.832;9.422;2023-03-04T02:54:03;60.27;;;27.90;;
4786;SDS011;62338;48.832;9.422;2023-03-04T02:56:05;53.87;;;28.90;;
4786;SDS011;62338;48.832;9.422;2023-03-04T02:58:08;52.70;;;28.97;;
4786;SDS011;62338;48.832;9.422;2023-03-04T03:00:10;60.83;;;28.97;;
4786;SDS011;62338;48.832;9.422;2023-03-04T03:02:13;58.53;;;30.20;;
4786;SDS011;62338;48.832;9.422;2023-03-04T03:04:14;50.63;;;27.57;;
4786;SDS011;62338;48.832;9.422;2023-03-04T03:06:17;53.93;;;28.97;;
4786;SDS011;62338;48.832;9.422;2023-03-04T03:08:19;54.83;;;28.40;;
4786;SDS011;62338;48.832;9.422;2023-03-04T03:10:21;65.93;;;28.40;;
4786;SDS011;62338;48.832;9.422;2023-03-04T03:12:23;60.50;;;30.80;;
4786;SDS011;62338;48.832;9.422;2023-03-04T03:14:24;60.73;;;29.00;;
4786;SDS011;62338;48.832;9.422;2023-03-04T03:16:26;60.83;;;30.57;;
4786;SDS011;62338;48.832;9.422;2023-03-04T03:18:28;59.17;;;28.40;;
4786;SDS011;62338;48.832;9.422;2023-03-04T03:20:30;67.37;;;30.43;;
4786;SDS011;62338;48.832;9.422;2023-03-04T03:22:31;59.23;;;29.77;;
4786;SDS011;62338;48.832;9.422;2023-03-04T03:24:33;62.63;;;31.87;;
4786;SDS011;62338;48.832;9.422;2023-03-04T03:26:35;64.60;;;32.00;;
4786;SDS011;62338;48.832;9.422;2023-03-04T03:28:37;61.20;;;31.00;;
4786;SDS011;62338;48.832;9.422;2023-03-04T03:30:38;63.07;;;29.57;;
4786;SDS011;62338;48.832;9.422;2023-03-04T03:32:40;59.70;;;28.10;;
4786;SDS011;62338;48.832;9.422;2023-03-04T03:34:42;66.30;;;31.40;;
4786;SDS011;62338;48.832;9.422;2023-03-04T03:36:44;67.27;;;30.60;;
4786;SDS011;62338;48.832;9.422;2023-03-04T03:38:46;67.30;;;31.63;;
4786;SDS011;62338;48.832;9.422;2023-03-04T03:40:47;62.57;;;30.77;;
4786;SDS011;62338;48.832;9.422;2023-03-04T03:42:49;72.40;;;30.70;;
4786;SDS011;62338;48.832;9.422;2023-03-04T03:44:51;62.73;;;30.20;;
4786;SDS011;62338;48.832;9.422;2023-03-04T03:46:53;63.37;;;29.80;;
4786;SDS011;62338;48.832;9.422;2023-03-04T03:48:54;65.57;;;31.60;;
4786;SDS011;62338;48.832;9.422;2023-03-04T03:50:56;65.03;;;30.40;;
4786;SDS011;62338;48.832;9.422;2023-03-04T03:52:58;60.27;;;30.47;;
4786;SDS011;62338;48.832;9.422;2023-03-04T03:54:59;60.93;;;31.10;;
4786;SDS011;62338;48.832;9.422;2023-03-04T03:57:02;67.90;;;32.00;;
4786;SDS011;62338;48.832;9.422;2023-03-04T03:59:04;61.20;;;30.60;;
4786;SDS011;62338;48.832;9.422;2023-03-04T04:01:05;60.67;;;29.17;;
4786;SDS011;62338;48.832;9.422;2023-03-04T04:03:08;69.17;;;31.90;;
4786;SDS011;62338;48.832;9.422;2023-03-04T04:05:14;70.43;;;32.20;;
4786;SDS011;62338;48.832;9.422;2023-03-04T04:07:16;74.90;;;32.40;;
4786;SDS011;62338;48.832;9.422;2023-03-04T04:09:18;60.17;;;31.07;;
4786;SDS011;62338;48.832;9.422;2023-03-04T04:11:20;59.60;;;30.53;;
4786;SDS011;62338;48.832;9.422;2023-03-04T04:13:22;71.73;;;33.47;;
4786;SDS011;62338;48.832;9.422;2023-03-04T04:15:24;61.73;;;30.17;;
4786;SDS011;62338;48.832;9.422;2023-03-04T04:17:25;58.83;;;27.87;;
4786;SDS011;62338;48.832;9.422;2023-03-04T04:19:27;67.57;;;32.50;;
4786;SDS011;62338;48.832;9.422;2023-03-04T04:21:29;63.80;;;28.53;;
4786;SDS011;62338;48.832;9.422;2023-03-04T04:23:31;62.37;;;29.63;;
4786;SDS011;62338;48.832;9.422;2023-03-04T04:25:32;65.07;;;30.80;;
4786;SDS011;62338;48.832;9.422;2023-03-04T04:27:34;66.23;;;31.90;;
4786;SDS011;62338;48.832;9.422;2023-03-04T04:29:36;68.77;;;32.10;;
4786;SDS011;62338;48.832;9.422;2023-03-04T04:31:38;74.60;;;31.60;;
4786;SDS011;62338;48.832;9.422;2023-03-04T04:33:40;63.77;;;31.13;;
4786;SDS011;62338;48.832;9.422;2023-03-04T04:35:42;72.00;;;33.30;;
4786;SDS011;62338;48.832;9.422;2023-03-04T04:37:44;63.47;;;30.97;;
4786;SDS011;62338;48.832;9.422;2023-03-04T04:39:46;58.60;;;30.70;;
4786;SDS011;62338;48.832;9.422;2023-03-04T04:41:48;62.77;;;30.87;;
4786;SDS011;62338;48.832;9.422;2023-03-04T04:43:50;72.67;;;33.37;;
4786;SDS011;62338;48.832;9.422;2023-03-04T04:45:57;61.87;;;31.30;;
4786;SDS011;62338;48.832;9.422;2023-03-04T04:48:05;66.23;;;32.10;;
4786;SDS011;62338;48.832;9.422;2023-03-04T04:50:08;69.73;;;31.37;;
4786;SDS011;62338;48.832;9.422;2023-03-04T04:52:10;73.73;;;32.30;;
4786;SDS011;62338;48.832;9.422;2023-03-04T04:54:12;71.30;;;30.93;;
4786;SDS011;62338;48.832;9.422;2023-03-04T04:56:15;61.17;;;30.57;;
4786;SDS011;62338;48.832;9.422;2023-03-04T04:58:22;70.30;;;32.10;;
4786;SDS011;62338;48.832;9.422;2023-03-04T05:00:24;75.17;;;32.90;;
4786;SDS011;62338;48.832;9.422;2023-03-04T05:02:26;75.20;;;33.07;;
4786;SDS011;62338;48.832;9.422;2023-03-04T05:04:28;67.60;;;30.10;;
4786;SDS011;62338;48.832;9.422;2023-03-04T05:06:30;65.80;;;31.27;;
4786;SDS011;62338;48.832;9.422;2023-03-04T05:08:32;70.30;;;32.70;;
4786;SDS011;62338;48.832;9.422;2023-03-04T05:10:34;71.73;;;32.23;;
4786;SDS011;62338;48.832;9.422;2023-03-04T05:12:35;72.47;;;32.20;;
4786;SDS011;62338;48.832;9.422;2023-03-04T05:14:37;78.00;;;31.90;;
4786;SDS011;62338;48.832;9.422;2023-03-04T05:16:39;77.87;;;33.47;;
4786;SDS011;62338;48.832;9.422;2023-03-04T05:18:41;70.87;;;33.00;;
4786;SDS011;62338;48.832;9.422;2023-03-04T05:20:43;78.30;;;33.87;;
4786;SDS011;62338;48.832;9.422;2023-03-04T05:22:45;70.60;;;33.33;;
4786;SDS011;62338;48.832;9.422;2023-03-04T05:24:46;72.57;;;34.47;;
4786;SDS011;62338;48.832;9.422;2023-03-04T05:26:48;75.97;;;32.93;;
4786;SDS011;62338;48.832;9.422;2023-03-04T05:28:50;76.10;;;34.27;;
4786;SDS011;62338;48.832;9.422;2023-03-04T05:30:51;79.60;;;34.33;;
4786;SDS011;62338;48.832;9.422;2023-03-04T05:32:54;81.67;;;33.83;;
4786;SDS011;62338;48.832;9.422;2023-03-04T05:34:56;80.20;;;34.00;;
4786;SDS011;62338;48.832;9.422;2023-03-04T05:36:57;74.83;;;34.10;;
4786;SDS011;62338;48.832;9.422;2023-03-04T05:38:59;72.80;;;34.77;;
4786;SDS011;62338;48.832;9.422;2023-03-04T05:41:02;85.23;;;35.43;;
4786;SDS011;62338;48.832;9.422;2023-03-04T05:43:05;82.50;;;36.23;;
4786;SDS011;62338;48.832;9.422;2023-03-04T05:45:07;81.57;;;36.00;;
4786;SDS011;62338;48.832;9.422;2023-03-04T05:47:09;84.87;;;36.50;;
4786;SDS011;62338;48.832;9.422;2023-03-04T05:49:11;86.07;;;37.07;;
4786;SDS011;62338;48.832;9.422;2023-03-04T05:51:13;91.63;;;35.73;;
4786;SDS011;62338;48.832;9.422;2023-03-04T05:53:15;91.70;;;37.70;;
4786;SDS011;62338;48.832;9.422;2023-03-04T05:55:16;89.20;;;36.87;;
4786;SDS011;62338;48.832;9.422;2023-03-04T05:57:18;93.63;;;38.50;;
4786;SDS011;62338;48.832;9.422;2023-03-04T05:59:20;99.33;;;38.23;;
4786;SDS011;62338;48.832;9.422;2023-03-04T06:01:22;91.47;;;37.40;;
4786;SDS011;62338;48.832;9.422;2023-03-04T06:03:24;96.33;;;36.73;;
4786;SDS011;62338;48.832;9.422;2023-03-04T06:05:25;97.97;;;37.57;;
4786;SDS011;62338;48.832;9.422;2023-03-04T06:07:27;131.83;;;40.80;;
4786;SDS011;62338;48.832;9.422;2023-03-04T06:09:29;100.50;;;40.70;;
4786;SDS011;62338;48.832;9.422;2023-03-04T06:11:31;92.03;;;36.80;;
4786;SDS011;62338;48.832;9.422;2023-03-04T06:13:36;93.67;;;37.53;;
4786;SDS011;62338;48.832;9.422;2023-03-04T06:15:38;102.47;;;38.57;;
4786;SDS011;62338;48.832;9.422;2023-03-04T06:17:40;109.80;;;39.60;;
4786;SDS011;62338;48.832;9.422;2023-03-04T06:19:42;102.40;;;39.20;;
4786;SDS011;62338;48.832;9.422;2023-03-04T06:21:44;112.13;;;40.90;;
4786;SDS011;62338;48.832;9.422;2023-03-04T06:23:46;115.53;;;39.30;;
4786;SDS011;62338;48.832;9.422;2023-03-04T06:25:50;100.53;;;39.20;;
4786;SDS011;62338;48.832;9.422;2023-03-04T06:27:53;110.37;;;40.70;;
4786;SDS011;62338;48.832;9.422;2023-03-04T06:29:56;109.17;;;39.00;;
4786;SDS011;62338;48.832;9.422;2023-03-04T06:31:58;98.90;;;39.97;;
4786;SDS011;62338;48.832;9.422;2023-03-04T06:34:00;99.20;;;39.70;;
4786;SDS011;62338;48.832;9.422;2023-03-04T06:36:02;100.40;;;37.10;;
4786;SDS011;62338;48.832;9.422;2023-03-04T06:38:04;93.70;;;36.97;;
4786;SDS011;62338;48.832;9.422;2023-03-04T06:40:06;96.07;;;37.57;;
4786;SDS011;62338;48.832;9.422;2023-03-04T06:42:09;85.07;;;36.60;;
4786;SDS011;62338;48.832;9.422;2023-03-04T06:44:11;79.07;;;33.67;;
4786;SDS011;62338;48.832;9.422;2023-03-04T06:46:13;83.93;;;36.67;;
4786;SDS011;62338;48.832;9.422;2023-03-04T06:48:15;81.60;;;34.73;;
4786;SDS011;62338;48.832;9.422;2023-03-04T06:50:17;80.90;;;33.13;;
4786;SDS011;62338;48.832;9.422;2023-03-04T06:52:18;87.43;;;35.37;;
4786;SDS011;62338;48.832;9.422;2023-03-04T06:54:20;74.80;;;32.80;;
4786;SDS011;62338;48.832;9.422;2023-03-04T06:56:22;76.77;;;31.23;;
4786;SDS011;62338;48.832;9.422;2023-03-04T06:58:24;69.93;;;33.30;;
4786;SDS011;62338;48.832;9.422;2023-03-04T07:00:26;69.23;;;30.87;;
4786;SDS011;62338;48.832;9.422;2023-03-04T07:02:28;59.07;;;30.50;;
4786;SDS011;62338;48.832;9.422;2023-03-04T07:04:30;64.80;;;29.97;;
4786;SDS011;62338;48.832;9.422;2023-03-04T07:06:32;61.27;;;28.73;;
4786;SDS011;62338;48.832;9.422;2023-03-04T07:08:34;64.63;;;28.80;;
4786;SDS011;62338;48.832;9.422;2023-03-04T07:10:36;61.40;;;29.63;;
4786;SDS011;62338;48.832;9.422;2023-03-04T07:12:38;69.97;;;28.10;;
4786;SDS011;62338;48.832;9.422;2023-03-04T07:14:40;57.40;;;27.73;;
4786;SDS011;62338;48.832;9.422;2023-03-04T07:16:41;55.77;;;27.97;;
4786;SDS011;62338;48.832;9.422;2023-03-04T07:18:43;56.20;;;28.47;;
4786;SDS011;62338;48.832;9.422;2023-03-04T07:20:46;61.30;;;27.63;;
4786;SDS011;62338;48.832;9.422;2023-03-04T07:22:48;49.27;;;25.17;;
4786;SDS011;62338;48.832;9.422;2023-03-04T07:24:49;50.20;;;25.03;;
4786;SDS011;62338;48.832;9.422;2023-03-04T07:26:52;55.13;;;26.60;;
4786;SDS011;62338;48.832;9.422;2023-03-04T07:28:53;59.37;;;28.30;;
4786;SDS011;62338;48.832;9.422;2023-03-04T07:31:06;57.77;;;27.17;;
4786;SDS011;62338;48.832;9.422;2023-03-04T07:33:32;49.40;;;25.17;;
4786;SDS011;62338;48.832;9.422;2023-03-04T07:35:34;64.70;;;24.60;;
4786;SDS011;62338;48.832;9.422;2023-03-04T07:37:35;45.97;;;23.13;;
4786;SDS011;62338;48.832;9.422;2023-03-04T07:39:37;46.53;;;25.10;;
4786;SDS011;62338;48.832;9.422;2023-03-04T07:41:39;46.97;;;24.37;;
4786;SDS011;62338;48.832;9.422;2023-03-04T07:43:41;41.83;;;22.40;;
4786;SDS011;62338;48.832;9.422;2023-03-04T07:45:43;41.07;;;22.27;;
4786;SDS011;62338;48.832;9.422;2023-03-04T07:47:45;44.43;;;23.07;;
4786;SDS011;62338;48.832;9.422;2023-03-04T07:49:47;39.13;;;22.40;;
4786;SDS011;62338;48.832;9.422;2023-03-04T07:51:49;46.80;;;22.20;;
4786;SDS011;62338;48.832;9.422;2023-03-04T07:53:52;43.57;;;21.57;;
4786;SDS011;62338;48.832;9.422;2023-03-04T07:55:56;38.80;;;19.67;;
4786;SDS011;62338;48.832;9.422;2023-03-04T07:58:00;41.17;;;21.07;;
4786;SDS011;62338;48.832;9.422;2023-03-04T08:00:03;55.63;;;22.10;;
4786;SDS011;62338;48.832;9.422;2023-03-04T08:02:05;41.97;;;21.30;;
4786;SDS011;62338;48.832;9.422;2023-03-04T08:04:07;39.80;;;21.70;;
4786;SDS011;62338;48.832;9.422;2023-03-04T08:06:10;45.13;;;23.70;;
4786;SDS011;62338;48.832;9.422;2023-03-04T08:08:13;46.23;;;22.60;;
4786;SDS011;62338;48.832;9.422;2023-03-04T08:10:17;63.73;;;23.13;;
4786;SDS011;62338;48.832;9.422;2023-03-04T08:12:19;47.90;;;21.23;;
4786;SDS011;62338;48.832;9.422;2023-03-04T08:14:21;52.13;;;24.17;;
4786;SDS011;62338;48.832;9.422;2023-03-04T08:16:23;53.23;;;21.07;;
4786;SDS011;62338;48.832;9.422;2023-03-04T08:18:26;39.53;;;20.30;;
4786;SDS011;62338;48.832;9.422;2023-03-04T08:20:28;45.00;;;20.40;;
4786;SDS011;62338;48.832;9.422;2023-03-04T08:22:30;32.50;;;18.03;;
4786;SDS011;62338;48.832;9.422;2023-03-04T08:24:31;37.77;;;19.30;;
4786;SDS011;62338;48.832;9.422;2023-03-04T08:26:35;39.97;;;18.87;;
4786;SDS011;62338;48.832;9.422;2023-03-04T08:28:43;40.70;;;20.30;;
4786;SDS011;62338;48.832;9.422;2023-03-04T08:30:50;41.73;;;19.00;;
4786;SDS011;62338;48.832;9.422;2023-03-04T08:32:53;41.70;;;18.70;;
4786;SDS011;62338;48.832;9.422;2023-03-04T08:34:55;36.93;;;19.33;;
4786;SDS011;62338;48.832;9.422;2023-03-04T08:36:57;45.40;;;21.30;;
4786;SDS011;62338;48.832;9.422;2023-03-04T08:38:59;37.20;;;18.90;;
4786;SDS011;62338;48.832;9.422;2023-03-04T08:41:01;42.23;;;21.30;;
4786;SDS011;62338;48.832;9.422;2023-03-04T08:43:04;36.30;;;19.53;;
4786;SDS011;62338;48.832;9.422;2023-03-04T08:45:06;41.23;;;19.90;;
4786;SDS011;62338;48.832;9.422;2023-03-04T08:47:09;42.67;;;20.67;;
4786;SDS011;62338;48.832;9.422;2023-03-04T08:49:11;43.70;;;19.83;;
4786;SDS011;62338;48.832;9.422;2023-03-04T08:51:15;40.40;;;20.37;;
4786;SDS011;62338;48.832;9.422;2023-03-04T08:53:17;37.37;;;19.07;;
4786;SDS011;62338;48.832;9.422;2023-03-04T08:55:19;33.33;;;18.63;;
4786;SDS011;62338;48.832;9.422;2023-03-04T08:57:21;46.40;;;20.13;;
4786;SDS011;62338;48.832;9.422;2023-03-04T08:59:24;37.23;;;19.43;;
4786;SDS011;62338;48.832;9.422;2023-03-04T09:01:26;34.43;;;19.17;;
4786;SDS011;62338;48.832;9.422;2023-03-04T09:03:28;31.33;;;17.00;;
4786;SDS011;62338;48.832;9.422;2023-03-04T09:05:30;31.80;;;17.03;;
4786;SDS011;62338;48.832;9.422;2023-03-04T09:07:32;39.17;;;18.23;;
4786;SDS011;62338;48.832;9.422;2023-03-04T09:09:34;30.47;;;16.93;;
4786;SDS011;62338;48.832;9.422;2023-03-04T09:11:36;35.53;;;17.40;;
4786;SDS011;62338;48.832;9.422;2023-03-04T09:13:38;33.37;;;17.20;;
4786;SDS011;62338;48.832;9.422;2023-03-04T09:15:43;35.70;;;18.43;;
4786;SDS011;62338;48.832;9.422;2023-03-04T09:17:46;36.93;;;17.30;;
4786;SDS011;62338;48.832;9.422;2023-03-04T09:19:48;35.30;;;17.87;;
4786;SDS011;62338;48.832;9.422;2023-03-04T09:21:50;37.60;;;19.90;;
4786;SDS011;62338;48.832;9.422;2023-03-04T09:23:52;34.60;;;19.40;;
4786;SDS011;62338;48.832;9.422;2023-03-04T09:25:53;36.23;;;19.50;;
4786;SDS011;62338;48.832;9.422;2023-03-04T09:27:55;32.47;;;17.83;;
4786;SDS011;62338;48.832;9.422;2023-03-04T09:29:57;31.73;;;18.83;;
4786;SDS011;62338;48.832;9.422;2023-03-04T09:31:59;44.80;;;21.63;;
4786;SDS011;62338;48.832;9.422;2023-03-04T09:34:01;40.67;;;21.33;;
4786;SDS011;62338;48.832;9.422;2023-03-04T09:36:03;42.17;;;21.40;;
4786;SDS011;62338;48.832;9.422;2023-03-04T09:38:05;35.73;;;17.77;;
4786;SDS011;62338;48.832;9.422;2023-03-04T09:40:08;34.37;;;18.93;;
4786;SDS011;62338;48.832;9.422;2023-03-04T09:42:24;40.70;;;20.47;;
4786;SDS011;62338;48.832;9.422;2023-03-04T09:44:38;38.07;;;20.70;;
4786;SDS011;62338;48.832;9.422;2023-03-04T09:46:42;33.40;;;19.33;;
4786;SDS011;62338;48.832;9.422;2023-03-04T09:48:46;37.57;;;20.33;;
4786;SDS011;62338;48.832;9.422;2023-03-04T09:51:10;38.20;;;20.23;;
4786;SDS011;62338;48.832;9.422;2023-03-04T09:53:54;36.60;;;20.33;;
4786;SDS011;62338;48.832;9.422;2023-03-04T09:55:59;36.17;;;19.83;;
4786;SDS011;62338;48.832;9.422;2023-03-04T10:02:43;37.60;;;20.90;;
4786;SDS011;62338;48.832;9.422;2023-03-04T10:06:50;38.17;;;19.37;;
4786;SDS011;62338;48.832;9.422;2023-03-04T10:09:05;37.90;;;20.73;;
4786;SDS011;62338;48.832;9.422;2023-03-04T10:11:25;36.57;;;19.40;;
4786;SDS011;62338;48.832;9.422;2023-03-04T10:14:32;37.83;;;19.47;;
4786;SDS011;62338;48.832;9.422;2023-03-04T10:16:20;45.43;;;19.80;;
4786;SDS011;62338;48.832;9.422;2023-03-04T10:18:26;40.60;;;20.70;;
4786;SDS011;62338;48.832;9.422;2023-03-04T10:20:46;29.80;;;18.07;;
4786;SDS011;62338;48.832;9.422;2023-03-04T10:22:59;31.10;;;18.00;;
4786;SDS011;62338;48.832;9.422;2023-03-04T10:25:26;35.03;;;18.77;;
4786;SDS011;62338;48.832;9.422;2023-03-04T10:27:29;33.30;;;17.77;;
4786;SDS011;62338;48.832;9.422;2023-03-04T10:29:32;32.03;;;18.23;;
4786;SDS011;62338;48.832;9.422;2023-03-04T10:31:35;35.93;;;19.10;;
4786;SDS011;62338;48.832;9.422;2023-03-04T10:33:39;32.90;;;17.73;;
4786;SDS011;62338;48.832;9.422;2023-03-04T10:35:42;31.73;;;18.00;;
4786;SDS011;62338;48.832;9.422;2023-03-04T10:37:49;34.03;;;18.00;;
4786;SDS011;62338;48.832;9.422;2023-03-04T10:39:52;29.30;;;17.73;;
4786;SDS011;62338;48.832;9.422;2023-03-04T10:42:04;32.60;;;17.73;;
4786;SDS011;62338;48.832;9.422;2023-03-04T10:44:16;31.00;;;16.97;;
4786;SDS011;62338;48.832;9.422;2023-03-04T10:46:19;27.33;;;17.33;;
4786;SDS011;62338;48.832;9.422;2023-03-04T10:48:22;28.53;;;16.93;;
4786;SDS011;62338;48.832;9.422;2023-03-04T10:50:26;32.70;;;17.37;;
4786;SDS011;62338;48.832;9.422;2023-03-04T10:52:30;29.53;;;17.50;;
4786;SDS011;62338;48.832;9.422;2023-03-04T10:54:46;31.20;;;16.33;;
4786;SDS011;62338;48.832;9.422;2023-03-04T10:57:02;31.00;;;17.90;;
4786;SDS011;62338;48.832;9.422;2023-03-04T11:01:33;29.50;;;16.57;;
4786;SDS011;62338;48.832;9.422;2023-03-04T11:03:36;31.47;;;17.67;;
4786;SDS011;62338;48.832;9.422;2023-03-04T11:05:38;31.10;;;16.87;;
4786;SDS011;62338;48.832;9.422;2023-03-04T11:07:44;30.47;;;17.67;;
4786;SDS011;62338;48.832;9.422;2023-03-04T11:10:06;28.10;;;17.30;;
4786;SDS011;62338;48.832;9.422;2023-03-04T11:12:11;34.77;;;18.00;;
4786;SDS011;62338;48.832;9.422;2023-03-04T11:16:30;36.43;;;17.97;;
4786;SDS011;62338;48.832;9.422;2023-03-04T11:18:43;30.00;;;17.40;;
4786;SDS011;62338;48.832;9.422;2023-03-04T11:20:48;28.50;;;17.07;;
4786;SDS011;62338;48.832;9.422;2023-03-04T11:22:51;33.63;;;18.20;;
4786;SDS011;62338;48.832;9.422;2023-03-04T11:24:57;28.23;;;16.57;;
4786;SDS011;62338;48.832;9.422;2023-03-04T11:27:20;31.23;;;19.10;;
4786;SDS011;62338;48.832;9.422;2023-03-04T11:31:46;30.20;;;19.00;;
4786;SDS011;62338;48.832;9.422;2023-03-04T11:33:54;30.70;;;17.40;;
4786;SDS011;62338;48.832;9.422;2023-03-04T11:36:22;76.90;;;20.77;;
4786;SDS011;62338;48.832;9.422;2023-03-04T11:38:34;31.80;;;18.80;;
4786;SDS011;62338;48.832;9.422;2023-03-04T11:40:44;35.83;;;19.13;;
4786;SDS011;62338;48.832;9.422;2023-03-04T11:43:02;31.43;;;18.47;;
4786;SDS011;62338;48.832;9.422;2023-03-04T11:45:11;31.50;;;17.80;;
4786;SDS011;62338;48.832;9.422;2023-03-04T11:50:03;30.07;;;17.73;;
4786;SDS011;62338;48.832;9.422;2023-03-04T11:55:08;35.00;;;18.93;;
4786;SDS011;62338;48.832;9.422;2023-03-04T11:56:52;29.10;;;18.00;;
4786;SDS011;62338;48.832;9.422;2023-03-04T12:01:39;32.53;;;20.17;;
4786;SDS011;62338;48.832;9.422;2023-03-04T12:06:11;35.57;;;19.77;;
4786;SDS011;62338;48.832;9.422;2023-03-04T12:11:00;35.10;;;21.30;;
4786;SDS011;62338;48.832;9.422;2023-03-04T12:27:27;31.87;;;18.93;;
4786;SDS011;62338;48.832;9.422;2023-03-04T12:29:48;33.13;;;20.00;;
4786;SDS011;62338;48.832;9.422;2023-03-04T12:38:59;37.23;;;21.57;;
4786;SDS011;62338;48.832;9.422;2023-03-04T12:43:36;34.23;;;20.30;;
4786;SDS011;62338;48.832;9.422;2023-03-04T12:46:12;38.37;;;20.93;;
4786;SDS011;62338;48.832;9.422;2023-03-04T12:48:36;37.83;;;21.93;;
4786;SDS011;62338;48.832;9.422;2023-03-04T12:53:02;36.60;;;21.73;;
4786;SDS011;62338;48.832;9.422;2023-03-04T12:55:15;40.13;;;21.00;;
4786;SDS011;62338;48.832;9.422;2023-03-04T12:57:20;44.97;;;21.73;;
4786;SDS011;62338;48.832;9.422;2023-03-04T12:59:29;37.73;;;21.93;;
4786;SDS011;62338;48.832;9.422;2023-03-04T13:04:21;38.90;;;21.40;;
4786;SDS011;62338;48.832;9.422;2023-03-04T13:15:37;42.77;;;23.93;;
4786;SDS011;62338;48.832;9.422;2023-03-04T13:17:44;41.00;;;24.40;;
4786;SDS011;62338;48.832;9.422;2023-03-04T13:21:56;41.60;;;23.70;;
4786;SDS011;62338;48.832;9.422;2023-03-04T13:24:00;43.27;;;25.53;;
4786;SDS011;62338;48.832;9.422;2023-03-04T13:26:38;44.10;;;24.50;;